www.cux-wetter.de
Wetterdaten: Samstag, 14.04.2007
Datum Zeit Temp. A. Feuchte A. Luftdruck Regen Wind Richtung Richtung Sonnenschein Solar Taupunkt Windchill Windben
14.04.2007 00:00 11,3 C 78 % 1024,5 hPa 0,0 l/m 13,9 km/h (3 Bft) O 90 0 min 0 W/m 7,6 C 7,2 C 13,9 km/h (3 Bft)
14.04.2007 00:15 11,1 C 78 % 1024,5 hPa 0,0 l/m 5,4 km/h (2 Bft) O-SO 120 0 min 0 W/m 7,4 C 11,1 C 5,4 km/h (2 Bft)
14.04.2007 00:30 10,8 C 79 % 1024,5 hPa 0,0 l/m 8,2 km/h (2 Bft) O-SO 105 0 min 0 W/m 7,3 C 9,6 C 8,2 km/h (2 Bft)
14.04.2007 00:45 10,6 C 80 % 1024,5 hPa 0,0 l/m 10,3 km/h (2 Bft) SO 145 0 min 0 W/m 7,3 C 8,1 C 10,3 km/h (2 Bft)
14.04.2007 01:00 10,6 C 82 % 1024,5 hPa 0,0 l/m 12,6 km/h (3 Bft) SO 135 0 min 0 W/m 7,7 C 6,9 C 12,6 km/h (3 Bft)
14.04.2007 01:15 10,6 C 83 % 1024,5 hPa 0,0 l/m 12,5 km/h (2 Bft) O-SO 110 0 min 0 W/m 7,8 C 7,0 C 12,5 km/h (2 Bft)
14.04.2007 01:30 10,3 C 82 % 1024,5 hPa 0,0 l/m 7,9 km/h (2 Bft) O-SO 115 0 min 0 W/m 7,4 C 9,2 C 7,9 km/h (2 Bft)
14.04.2007 01:45 10,0 C 83 % 1024,5 hPa 0,0 l/m 8,1 km/h (2 Bft) O-SO 120 0 min 0 W/m 7,2 C 8,8 C 8,1 km/h (2 Bft)
14.04.2007 02:00 10,0 C 84 % 1024,5 hPa 0,0 l/m 8,3 km/h (2 Bft) O-SO 105 0 min 0 W/m 7,4 C 8,7 C 8,3 km/h (2 Bft)
14.04.2007 02:15 10,0 C 84 % 1024,5 hPa 0,0 l/m 11,7 km/h (2 Bft) O-SO 115 0 min 0 W/m 7,4 C 6,7 C 11,7 km/h (2 Bft)
14.04.2007 02:30 10,0 C 84 % 1024,5 hPa 0,0 l/m 10,6 km/h (2 Bft) SO 125 0 min 0 W/m 7,4 C 7,3 C 10,6 km/h (2 Bft)
14.04.2007 02:45 10,1 C 83 % 1024,5 hPa 0,0 l/m 15,3 km/h (3 Bft) O-SO 105 0 min 0 W/m 7,3 C 5,1 C 15,3 km/h (3 Bft)
14.04.2007 03:00 10,1 C 83 % 1024,5 hPa 0,0 l/m 13,7 km/h (3 Bft) O-SO 105 0 min 0 W/m 7,3 C 5,8 C 13,7 km/h (3 Bft)
14.04.2007 03:15 10,0 C 83 % 1024,5 hPa 0,0 l/m 17,6 km/h (3 Bft) SO 130 0 min 0 W/m 7,2 C 4,1 C 17,6 km/h (3 Bft)
14.04.2007 03:30 9,9 C 82 % 1024,5 hPa 0,0 l/m 10,0 km/h (2 Bft) O-SO 110 0 min 0 W/m 7,0 C 7,5 C 10,0 km/h (2 Bft)
14.04.2007 03:45 9,8 C 83 % 1024,5 hPa 0,0 l/m 12,5 km/h (2 Bft) SO 130 0 min 0 W/m 7,1 C 6,0 C 12,5 km/h (2 Bft)
14.04.2007 04:00 9,7 C 83 % 1024,5 hPa 0,0 l/m 10,6 km/h (2 Bft) O 100 0 min 0 W/m 7,0 C 6,9 C 10,6 km/h (2 Bft)
14.04.2007 04:15 9,7 C 83 % 1024,5 hPa 0,0 l/m 11,4 km/h (2 Bft) O-SO 115 0 min 0 W/m 7,0 C 6,5 C 11,4 km/h (2 Bft)
14.04.2007 04:30 9,6 C 83 % 1024,5 hPa 0,0 l/m 13,7 km/h (3 Bft) SO 125 0 min 0 W/m 6,9 C 5,2 C 13,7 km/h (3 Bft)
14.04.2007 04:45 9,5 C 83 % 1024,5 hPa 0,0 l/m 12,0 km/h (2 Bft) SO 125 0 min 0 W/m 6,8 C 5,9 C 12,0 km/h (2 Bft)
14.04.2007 05:00 9,4 C 82 % 1024,5 hPa 0,0 l/m 14,6 km/h (3 Bft) SO 145 0 min 0 W/m 6,5 C 4,6 C 14,6 km/h (3 Bft)
14.04.2007 05:15 9,4 C 81 % 1024,5 hPa 0,0 l/m 17,3 km/h (3 Bft) O-SO 120 0 min 0 W/m 6,3 C 3,5 C 17,3 km/h (3 Bft)
14.04.2007 05:30 9,3 C 81 % 1024,5 hPa 0,0 l/m 15,3 km/h (3 Bft) O 100 0 min 0 W/m 6,2 C 4,2 C 15,3 km/h (3 Bft)
14.04.2007 05:45 9,2 C 82 % 1024,5 hPa 0,0 l/m 12,8 km/h (3 Bft) O-SO 110 0 min 0 W/m 6,3 C 5,2 C 12,8 km/h (3 Bft)
14.04.2007 06:00 9,0 C 83 % 1024,5 hPa 0,0 l/m 16,2 km/h (3 Bft) SO 130 0 min 0 W/m 6,3 C 3,4 C 16,2 km/h (3 Bft)
14.04.2007 06:15 8,9 C 84 % 1024,5 hPa 0,0 l/m 15,3 km/h (3 Bft) O 95 0 min 0 W/m 6,3 C 3,7 C 15,3 km/h (3 Bft)
14.04.2007 06:30 8,9 C 83 % 1024,5 hPa 0,0 l/m 16,5 km/h (3 Bft) SO 125 0 min 0 W/m 6,2 C 3,2 C 16,5 km/h (3 Bft)
14.04.2007 06:45 8,9 C 83 % 1024,5 hPa 0,0 l/m 13,8 km/h (3 Bft) SO 135 0 min 0 W/m 6,2 C 4,3 C 13,8 km/h (3 Bft)
14.04.2007 07:00 8,9 C 83 % 1024,5 hPa 0,0 l/m 14,6 km/h (3 Bft) O-SO 115 0 min 0 W/m 6,2 C 4,0 C 14,6 km/h (3 Bft)
14.04.2007 07:15 8,9 C 83 % 1024,5 hPa 0,0 l/m 15,6 km/h (3 Bft) O-SO 110 0 min 0 W/m 6,2 C 3,5 C 15,6 km/h (3 Bft)
14.04.2007 07:30 9,2 C 82 % 1024,5 hPa 0,0 l/m 14,9 km/h (3 Bft) SO 130 0 min 0 W/m 6,3 C 4,2 C 14,9 km/h (3 Bft)
14.04.2007 07:45 9,4 C 81 % 1024,5 hPa 0,0 l/m 15,5 km/h (3 Bft) O 85 0 min 0 W/m 6,3 C 4,2 C 15,5 km/h (3 Bft)
14.04.2007 08:00 9,6 C 81 % 1024,5 hPa 0,0 l/m 14,4 km/h (3 Bft) O-SO 115 0 min 0 W/m 6,5 C 4,9 C 14,4 km/h (3 Bft)
14.04.2007 08:15 9,8 C 80 % 1025,5 hPa 0,0 l/m 14,1 km/h (3 Bft) SO 125 0 min 0 W/m 6,5 C 5,3 C 14,1 km/h (3 Bft)
14.04.2007 08:30 10,3 C 80 % 1025,5 hPa 0,0 l/m 16,3 km/h (3 Bft) O-SO 115 0 min 0 W/m 7,0 C 5,0 C 16,3 km/h (3 Bft)
14.04.2007 08:45 11,4 C 77 % 1025,5 hPa 0,0 l/m 15,0 km/h (3 Bft) SO 130 0 min 0 W/m 7,5 C 6,8 C 15,0 km/h (3 Bft)
14.04.2007 09:00 11,7 C 74 % 1025,5 hPa 0,0 l/m 16,4 km/h (3 Bft) O-SO 110 0 min 0 W/m 7,2 C 6,7 C 16,4 km/h (3 Bft)
14.04.2007 09:15 11,5 C 73 % 1025,5 hPa 0,0 l/m 17,6 km/h (3 Bft) O 95 0 min 0 W/m 6,8 C 6,0 C 17,6 km/h (3 Bft)
14.04.2007 09:29 11,4 C 74 % 1025,5 hPa 0,0 l/m 16,8 km/h (3 Bft) O-NO 65 0 min 0 W/m 6,9 C 6,2 C 16,8 km/h (3 Bft)
14.04.2007 09:44 12,9 C 77 % 1025,5 hPa 0,0 l/m 17,4 km/h (3 Bft) N-NO 30 0 min 0 W/m 9,0 C 7,8 C 17,4 km/h (3 Bft)
14.04.2007 10:00 16,1 C 61 % 1025,5 hPa 0,0 l/m 20,3 km/h (4 Bft) O-SO 115 0 min 0 W/m 8,6 C 11,1 C 20,3 km/h (4 Bft)
14.04.2007 10:15 16,8 C 63 % 1025,5 hPa 0,0 l/m 16,5 km/h (3 Bft) O-SO 105 0 min 0 W/m 9,7 C 12,9 C 16,5 km/h (3 Bft)
14.04.2007 10:30 18,3 C 54 % 1025,5 hPa 0,0 l/m 14,0 km/h (3 Bft) O 90 0 min 0 W/m 8,8 C 15,5 C 14,0 km/h (3 Bft)
14.04.2007 10:45 18,6 C 56 % 1025,5 hPa 0,0 l/m 14,9 km/h (3 Bft) O 100 0 min 0 W/m 9,6 C 15,6 C 14,9 km/h (3 Bft)
14.04.2007 11:00 18,1 C 57 % 1025,5 hPa 0,0 l/m 11,7 km/h (2 Bft) O 90 0 min 0 W/m 9,4 C 15,9 C 11,7 km/h (2 Bft)
14.04.2007 11:15 18,0 C 54 % 1025,5 hPa 0,0 l/m 15,3 km/h (3 Bft) O-SO 110 0 min 0 W/m 8,6 C 14,7 C 15,3 km/h (3 Bft)
14.04.2007 11:30 18,6 C 54 % 1025,5 hPa 0,0 l/m 15,5 km/h (3 Bft) O 90 0 min 0 W/m 9,1 C 15,4 C 15,5 km/h (3 Bft)
14.04.2007 11:45 19,5 C 52 % 1025,5 hPa 0,0 l/m 18,2 km/h (3 Bft) O-SO 105 0 min 0 W/m 9,4 C 15,9 C 18,2 km/h (3 Bft)
14.04.2007 12:00 20,3 C 48 % 1025,5 hPa 0,0 l/m 17,5 km/h (3 Bft) O 90 0 min 0 W/m 8,9 C 17,1 C 17,5 km/h (3 Bft)
14.04.2007 12:14 21,0 C 45 % 1024,5 hPa 0,0 l/m 15,1 km/h (3 Bft) O 95 0 min 0 W/m 8,6 C 18,4 C 15,1 km/h (3 Bft)
14.04.2007 12:30 21,2 C 42 % 1024,5 hPa 0,0 l/m 19,2 km/h (3 Bft) O 100 0 min 0 W/m 7,8 C 17,9 C 19,2 km/h (3 Bft)
14.04.2007 12:45 21,7 C 42 % 1024,5 hPa 0,0 l/m 18,5 km/h (3 Bft) O-SO 115 0 min 0 W/m 8,2 C 18,7 C 18,5 km/h (3 Bft)
14.04.2007 13:00 21,8 C 44 % 1024,5 hPa 0,0 l/m 15,3 km/h (3 Bft) O 85 0 min 0 W/m 9,0 C 19,4 C 15,3 km/h (3 Bft)
14.04.2007 13:15 22,4 C 42 % 1024,5 hPa 0,0 l/m 12,6 km/h (3 Bft) O 80 0 min 0 W/m 8,9 C 20,7 C 12,6 km/h (3 Bft)
14.04.2007 13:30 22,3 C 43 % 1024,5 hPa 0,0 l/m 12,6 km/h (3 Bft) O 90 0 min 0 W/m 9,1 C 20,5 C 12,6 km/h (3 Bft)
14.04.2007 13:45 22,7 C 41 % 1024,5 hPa 0,0 l/m 13,1 km/h (3 Bft) O-SO 120 0 min 0 W/m 8,8 C 20,9 C 13,1 km/h (3 Bft)
14.04.2007 13:59 23,0 C 39 % 1024,5 hPa 0,0 l/m 14,3 km/h (3 Bft) O 95 0 min 0 W/m 8,3 C 21,0 C 14,3 km/h (3 Bft)
14.04.2007 14:15 23,0 C 40 % 1024,5 hPa 0,0 l/m 22,3 km/h (4 Bft) O 100 0 min 0 W/m 8,7 C 19,8 C 22,3 km/h (4 Bft)
14.04.2007 14:30 22,9 C 39 % 1024,5 hPa 0,0 l/m 20,9 km/h (4 Bft) O 95 0 min 0 W/m 8,2 C 19,8 C 20,9 km/h (4 Bft)
14.04.2007 14:45 23,2 C 38 % 1024,5 hPa 0,0 l/m 19,3 km/h (3 Bft) O 90 0 min 0 W/m 8,1 C 20,4 C 19,3 km/h (3 Bft)
14.04.2007 15:00 23,4 C 35 % 1024,5 hPa 0,0 l/m 19,9 km/h (4 Bft) O 100 0 min 0 W/m 7,1 C 20,6 C 19,9 km/h (4 Bft)
14.04.2007 15:15 23,6 C 37 % 1024,5 hPa 0,0 l/m 24,3 km/h (4 Bft) O 80 0 min 0 W/m 8,0 C 20,3 C 24,3 km/h (4 Bft)
14.04.2007 15:30 23,4 C 37 % 1024,5 hPa 0,0 l/m 20,3 km/h (4 Bft) O 95 0 min 0 W/m 7,9 C 20,6 C 20,3 km/h (4 Bft)
14.04.2007 15:45 23,5 C 38 % 1024,5 hPa 0,0 l/m 21,5 km/h (4 Bft) O 90 0 min 0 W/m 8,4 C 20,5 C 21,5 km/h (4 Bft)
14.04.2007 16:00 23,2 C 40 % 1024,5 hPa 0,0 l/m 16,4 km/h (3 Bft) O 90 0 min 0 W/m 8,8 C 20,9 C 16,4 km/h (3 Bft)
14.04.2007 16:09 23,5 C 39 % 1023,5 hPa 0,0 l/m 17,5 km/h (3 Bft) O 95 0 min 0 W/m 8,7 C 21,1 C 17,5 km/h (3 Bft)
14.04.2007 16:29 23,5 C 39 % 1023,5 hPa 0,0 l/m 18,0 km/h (3 Bft) O 85 0 min 0 W/m 8,7 C 21,0 C 18,0 km/h (3 Bft)
14.04.2007 16:45 23,2 C 40 % 1023,5 hPa 0,0 l/m 16,5 km/h (3 Bft) NO 55 0 min 0 W/m 8,8 C 20,9 C 16,5 km/h (3 Bft)
14.04.2007 17:00 23,3 C 40 % 1023,5 hPa 0,0 l/m 15,7 km/h (3 Bft) O 90 0 min 0 W/m 8,9 C 21,1 C 15,7 km/h (3 Bft)
14.04.2007 17:15 23,0 C 42 % 1023,5 hPa 0,0 l/m 17,4 km/h (3 Bft) O 100 0 min 0 W/m 9,4 C 20,5 C 17,4 km/h (3 Bft)
14.04.2007 17:30 22,8 C 42 % 1023,5 hPa 0,0 l/m 19,5 km/h (3 Bft) O 95 0 min 0 W/m 9,2 C 19,9 C 19,5 km/h (3 Bft)
14.04.2007 17:45 22,5 C 41 % 1023,5 hPa 0,0 l/m 22,4 km/h (4 Bft) O 90 0 min 0 W/m 8,6 C 19,1 C 22,4 km/h (4 Bft)
14.04.2007 17:59 22,1 C 41 % 1023,5 hPa 0,0 l/m 16,5 km/h (3 Bft) O 90 0 min 0 W/m 8,2 C 19,5 C 16,5 km/h (3 Bft)
14.04.2007 18:15 21,9 C 42 % 1024,5 hPa 0,0 l/m 14,8 km/h (3 Bft) O 80 0 min 0 W/m 8,4 C 19,6 C 14,8 km/h (3 Bft)
14.04.2007 18:30 21,7 C 42 % 1023,5 hPa 0,0 l/m 18,0 km/h (3 Bft) O-SO 105 0 min 0 W/m 8,2 C 18,7 C 18,0 km/h (3 Bft)
14.04.2007 18:45 21,4 C 43 % 1023,5 hPa 0,0 l/m 17,0 km/h (3 Bft) O 90 0 min 0 W/m 8,3 C 18,5 C 17,0 km/h (3 Bft)
14.04.2007 19:00 20,7 C 44 % 1024,5 hPa 0,0 l/m 17,4 km/h (3 Bft) O 90 0 min 0 W/m 8,0 C 17,6 C 17,4 km/h (3 Bft)
14.04.2007 19:15 20,3 C 48 % 1023,5 hPa 0,0 l/m 22,3 km/h (4 Bft) O 90 0 min 0 W/m 8,9 C 16,2 C 22,3 km/h (4 Bft)
14.04.2007 19:30 19,6 C 50 % 1024,5 hPa 0,0 l/m 17,2 km/h (3 Bft) O 85 0 min 0 W/m 8,9 C 16,3 C 17,2 km/h (3 Bft)
14.04.2007 19:45 18,8 C 51 % 1023,5 hPa 0,0 l/m 16,6 km/h (3 Bft) O 95 0 min 0 W/m 8,4 C 15,4 C 16,6 km/h (3 Bft)
14.04.2007 20:00 18,2 C 54 % 1023,5 hPa 0,0 l/m 13,5 km/h (3 Bft) O 90 0 min 0 W/m 8,7 C 15,5 C 13,5 km/h (3 Bft)
14.04.2007 20:14 17,6 C 57 % 1024,5 hPa 0,0 l/m 13,8 km/h (3 Bft) O 95 0 min 0 W/m 9,0 C 14,7 C 13,8 km/h (3 Bft)
14.04.2007 20:30 16,7 C 62 % 1024,5 hPa 0,0 l/m 10,9 km/h (2 Bft) O-SO 110 0 min 0 W/m 9,4 C 14,6 C 10,9 km/h (2 Bft)
14.04.2007 20:45 16,1 C 63 % 1024,5 hPa 0,0 l/m 8,9 km/h (2 Bft) O-NO 70 0 min 0 W/m 9,1 C 14,8 C 8,9 km/h (2 Bft)
14.04.2007 21:00 15,3 C 65 % 1024,5 hPa 0,0 l/m 8,1 km/h (2 Bft) O 90 0 min 0 W/m 8,8 C 14,4 C 8,1 km/h (2 Bft)
14.04.2007 21:15 14,8 C 68 % 1024,5 hPa 0,0 l/m 10,5 km/h (2 Bft) O 80 0 min 0 W/m 9,0 C 12,7 C 10,5 km/h (2 Bft)
14.04.2007 21:29 14,7 C 68 % 1024,5 hPa 0,0 l/m 10,3 km/h (2 Bft) O 80 0 min 0 W/m 8,9 C 12,6 C 10,3 km/h (2 Bft)
14.04.2007 21:44 14,6 C 67 % 1024,5 hPa 0,0 l/m 12,3 km/h (2 Bft) O 90 0 min 0 W/m 8,5 C 11,7 C 12,3 km/h (2 Bft)
14.04.2007 22:00 14,1 C 69 % 1024,5 hPa 0,0 l/m 14,1 km/h (3 Bft) O 80 0 min 0 W/m 8,5 C 10,4 C 14,1 km/h (3 Bft)
14.04.2007 22:15 13,8 C 70 % 1024,5 hPa 0,0 l/m 17,3 km/h (3 Bft) O-SO 105 0 min 0 W/m 8,4 C 9,0 C 17,3 km/h (3 Bft)
14.04.2007 22:30 13,7 C 70 % 1024,5 hPa 0,0 l/m 16,0 km/h (3 Bft) O 95 0 min 0 W/m 8,3 C 9,3 C 16,0 km/h (3 Bft)
14.04.2007 22:45 13,7 C 71 % 1024,5 hPa 0,0 l/m 14,6 km/h (3 Bft) O 80 0 min 0 W/m 8,5 C 9,8 C 14,6 km/h (3 Bft)
14.04.2007 23:00 13,6 C 71 % 1024,5 hPa 0,0 l/m 15,2 km/h (3 Bft) O 100 0 min 0 W/m 8,4 C 9,4 C 15,2 km/h (3 Bft)
14.04.2007 23:15 13,2 C 72 % 1024,5 hPa 0,0 l/m 13,3 km/h (3 Bft) O-NO 75 0 min 0 W/m 8,3 C 9,7 C 13,3 km/h (3 Bft)
14.04.2007 23:30 12,8 C 74 % 1025,5 hPa 0,0 l/m 8,9 km/h (2 Bft) O-SO 105 0 min 0 W/m 8,3 C 11,3 C 8,9 km/h (2 Bft)
14.04.2007 23:45 12,5 C 75 % 1025,5 hPa 0,0 l/m 8,3 km/h (2 Bft) O 85 0 min 0 W/m 8,2 C 11,3 C 8,3 km/h (2 Bft)
_ Min-Zeit 06:15 15:00 16:09 - 00:15 - - - - 06:30 06:30 00:15
Minimum _ 8,9 C 35 % 1023,5 hPa - 5,4 km/h (2 Bft) - - - - 6,2 C 3,2 C 5,4 km/h (2 Bft)
_ Max-Zeit 15:15 02:00 08:15 00:00 15:15 - - 00:00 00:00 10:15 17:00 15:15
Maximum _ 23,6 C 84 % 1025,5 hPa 0,0 l/m 24,3 km/h
O (4 Bft)
- - 0 min 0 W/m 9,7 C 21,1 C 24,3 km/h
O (4 Bft)
Durchschnitt _ 15,6 C 63 % 1024,6 hPa #0,0 l/m 14,9 km/h (3 Bft) O - #0 min. 0 W/m 7,9 C 12,2 C 14,9 km/h (3 Bft)
copyright by Holger Just